TimeCDT,TemperatureF,Dew PointF,Humidity,Sea Level PressureIn,VisibilityMPH,Wind Direction,Wind SpeedMPH,Gust SpeedMPH,PrecipitationIn,Events,Conditions,WindDirDegrees,DateUTC
12:16 AM,59.0,44.6,59,30.14,10.0,SW,13.8,18.4,N/A,,Clear,230,2013-04-27 05:16:00
12:35 AM,59.0,46.4,63,30.14,10.0,WSW,11.5,19.6,N/A,,Clear,240,2013-04-27 05:35:00
12:56 AM,57.2,44.6,63,30.15,10.0,WSW,5.8,-,N/A,,Clear,240,2013-04-27 05:56:00
1:16 AM,55.4,44.6,67,30.16,10.0,Calm,Calm,-,N/A,,Clear,0,2013-04-27 06:16:00
1:35 AM,55.4,46.4,72,30.16,10.0,South,5.8,-,N/A,,Clear,190,2013-04-27 06:35:00
1:56 AM,55.4,46.4,72,30.16,10.0,SSW,3.5,-,N/A,,Clear,210,2013-04-27 06:56:00
2:16 AM,53.6,44.6,72,30.16,10.0,Calm,Calm,-,N/A,,Clear,0,2013-04-27 07:16:00
2:35 AM,53.6,44.6,72,30.16,10.0,Calm,Calm,-,N/A,,Clear,0,2013-04-27 07:35:00
2:56 AM,53.6,44.6,72,30.15,10.0,Calm,Calm,-,N/A,,Clear,0,2013-04-27 07:56:00
3:16 AM,53.6,46.4,77,30.15,10.0,Calm,Calm,-,N/A,,Clear,0,2013-04-27 08:16:00
3:35 AM,53.6,46.4,77,30.14,10.0,Calm,Calm,-,N/A,,Clear,0,2013-04-27 08:35:00
3:56 AM,53.6,46.4,77,30.15,10.0,Calm,Calm,-,N/A,,Clear,0,2013-04-27 08:56:00
4:16 AM,51.8,44.6,76,30.15,10.0,NW,3.5,-,N/A,,Clear,310,2013-04-27 09:16:00
4:35 AM,50.0,42.8,76,30.15,10.0,Calm,Calm,-,N/A,,Clear,0,2013-04-27 09:35:00
4:56 AM,50.0,44.6,82,30.15,10.0,Calm,Calm,-,N/A,,Clear,0,2013-04-27 09:56:00
5:16 AM,51.8,44.6,76,30.14,10.0,South,3.5,-,N/A,,Clear,170,2013-04-27 10:16:00
5:35 AM,51.8,44.6,76,30.14,10.0,Calm,Calm,-,N/A,,Clear,0,2013-04-27 10:35:00
5:56 AM,51.8,44.6,76,30.15,10.0,Calm,Calm,-,N/A,,Clear,0,2013-04-27 10:56:00
6:16 AM,50.0,42.8,76,30.15,10.0,South,3.5,-,N/A,,Clear,190,2013-04-27 11:16:00
6:35 AM,50.0,42.8,76,30.15,10.0,Calm,Calm,-,N/A,,Clear,0,2013-04-27 11:35:00
6:56 AM,50.0,42.8,76,30.16,10.0,Calm,Calm,-,N/A,,Clear,0,2013-04-27 11:56:00
7:16 AM,51.8,44.6,76,30.16,10.0,Calm,Calm,-,N/A,,Clear,0,2013-04-27 12:16:00
7:35 AM,51.8,44.6,76,30.16,10.0,Calm,Calm,-,N/A,,Clear,0,2013-04-27 12:35:00
7:56 AM,53.6,44.6,72,30.16,10.0,SSW,4.6,-,N/A,,Clear,200,2013-04-27 12:56:00
8:16 AM,53.6,44.6,72,30.16,10.0,SSW,3.5,-,N/A,,Clear,200,2013-04-27 13:16:00
8:35 AM,53.6,42.8,67,30.16,10.0,South,4.6,-,N/A,,Clear,190,2013-04-27 13:35:00
8:56 AM,55.4,44.6,67,30.16,10.0,SW,5.8,-,N/A,,Clear,220,2013-04-27 13:56:00
9:16 AM,55.4,44.6,67,30.15,10.0,South,4.6,-,N/A,,Clear,180,2013-04-27 14:16:00
9:35 AM,59.0,46.4,63,30.14,10.0,Calm,Calm,-,N/A,,Clear,0,2013-04-27 14:35:00
9:56 AM,60.8,44.6,55,30.14,10.0,SSW,8.1,-,N/A,,Clear,210,2013-04-27 14:56:00
10:16 AM,60.8,44.6,55,30.13,10.0,SW,5.8,-,N/A,,Clear,220,2013-04-27 15:16:00
10:35 AM,60.8,44.6,55,30.13,10.0,SW,8.1,-,N/A,,Clear,230,2013-04-27 15:35:00
10:56 AM,60.8,44.6,55,30.13,10.0,SW,4.6,-,N/A,,Clear,220,2013-04-27 15:56:00
11:16 AM,62.6,44.6,52,30.13,10.0,SSE,5.8,-,N/A,,Clear,160,2013-04-27 16:16:00
11:35 AM,64.4,44.6,49,30.12,10.0,SW,4.6,-,N/A,,Clear,230,2013-04-27 16:35:00
11:56 AM,66.2,46.4,49,30.12,10.0,SSW,6.9,-,N/A,,Clear,200,2013-04-27 16:56:00
12:16 PM,69.8,46.4,43,30.12,10.0,West,5.8,-,N/A,,Scattered Clouds,270,2013-04-27 17:16:00
12:35 PM,69.8,46.4,43,30.11,10.0,SSE,10.4,-,N/A,,Scattered Clouds,160,2013-04-27 17:35:00
12:56 PM,69.8,46.4,43,30.10,10.0,South,6.9,-,N/A,,Scattered Clouds,170,2013-04-27 17:56:00
1:16 PM,69.8,46.4,43,30.09,10.0,SSE,6.9,-,N/A,,Scattered Clouds,160,2013-04-27 18:16:00
1:35 PM,69.8,46.4,43,30.08,10.0,South,8.1,17.3,N/A,,Scattered Clouds,180,2013-04-27 18:35:00
1:56 PM,69.8,44.6,40,30.07,10.0,SSE,5.8,-,N/A,,Mostly Cloudy,150,2013-04-27 18:56:00
2:16 PM,69.8,46.4,43,30.07,10.0,SSE,9.2,-,N/A,,Mostly Cloudy,160,2013-04-27 19:16:00
2:35 PM,69.8,44.6,40,30.06,10.0,SSW,10.4,16.1,N/A,,Overcast,200,2013-04-27 19:35:00
2:56 PM,69.8,44.6,40,30.06,10.0,SSW,6.9,-,N/A,,Mostly Cloudy,200,2013-04-27 19:56:00
3:16 PM,69.8,42.8,38,30.05,10.0,SSW,6.9,16.1,N/A,,Mostly Cloudy,200,2013-04-27 20:16:00
3:35 PM,69.8,42.8,38,30.05,10.0,South,6.9,-,N/A,,Mostly Cloudy,190,2013-04-27 20:35:00
3:56 PM,69.8,44.6,40,30.04,10.0,South,6.9,-,N/A,,Overcast,190,2013-04-27 20:56:00
4:15 PM,69.8,42.8,38,30.03,10.0,SW,11.5,-,N/A,,Mostly Cloudy,220,2013-04-27 21:15:00
4:36 PM,71.6,42.8,35,30.02,10.0,South,11.5,16.1,N/A,,Scattered Clouds,190,2013-04-27 21:36:00
4:56 PM,69.8,42.8,38,30.01,10.0,SW,6.9,-,N/A,,Scattered Clouds,220,2013-04-27 21:56:00
5:15 PM,69.8,42.8,38,30.01,10.0,South,6.9,-,N/A,,Scattered Clouds,180,2013-04-27 22:15:00
5:36 PM,69.8,41.0,35,30.01,10.0,SSW,6.9,-,N/A,,Clear,210,2013-04-27 22:36:00
5:55 PM,69.8,41.0,35,30.00,10.0,South,5.8,-,N/A,,Clear,180,2013-04-27 22:55:00
6:16 PM,69.8,41.0,35,30.00,10.0,South,8.1,-,N/A,,Clear,190,2013-04-27 23:16:00
6:36 PM,69.8,41.0,35,29.99,10.0,SSW,8.1,-,N/A,,Clear,200,2013-04-27 23:36:00
6:55 PM,69.8,42.8,38,29.99,10.0,SSW,8.1,-,N/A,,Clear,200,2013-04-27 23:55:00
7:16 PM,69.8,42.8,38,29.99,10.0,SSW,8.1,-,N/A,,Clear,200,2013-04-28 00:16:00
7:36 PM,66.2,42.8,43,29.99,10.0,SSW,5.8,-,N/A,,Clear,200,2013-04-28 00:36:00
7:55 PM,66.2,42.8,43,29.99,10.0,South,5.8,-,N/A,,Clear,190,2013-04-28 00:55:00
8:16 PM,62.6,42.8,48,29.99,10.0,SSW,5.8,-,N/A,,Clear,200,2013-04-28 01:16:00
8:36 PM,62.6,42.8,48,29.99,10.0,SSW,6.9,-,N/A,,Clear,200,2013-04-28 01:36:00
8:55 PM,60.8,42.8,52,30.00,10.0,SSW,5.8,-,N/A,,Clear,200,2013-04-28 01:55:00
9:16 PM,60.8,42.8,52,30.00,10.0,SSW,8.1,-,N/A,,Clear,210,2013-04-28 02:16:00
9:36 PM,60.8,42.8,52,30.00,10.0,SSW,9.2,-,N/A,,Clear,200,2013-04-28 02:36:00
9:55 PM,59.0,42.8,55,30.00,10.0,SSW,4.6,-,N/A,,Clear,210,2013-04-28 02:55:00
10:16 PM,59.0,42.8,55,30.00,10.0,SSW,8.1,-,N/A,,Clear,210,2013-04-28 03:16:00
10:35 PM,59.0,42.8,55,29.99,10.0,SSW,4.6,-,N/A,,Clear,200,2013-04-28 03:35:00
10:56 PM,59.0,42.8,55,29.99,10.0,Calm,Calm,-,N/A,,Clear,0,2013-04-28 03:56:00
11:16 PM,59.0,42.8,55,29.99,10.0,Calm,Calm,-,N/A,,Clear,0,2013-04-28 04:16:00
11:35 PM,55.4,42.8,63,29.98,10.0,Calm,Calm,-,N/A,,Clear,0,2013-04-28 04:35:00
11:56 PM,55.4,42.8,63,29.98,10.0,ESE,4.6,-,N/A,,Clear,110,2013-04-28 04:56:00